createdAt,value
2018-03-11T00:00:50.462Z,18.16
2018-03-11T00:01:50.599Z,18.15
2018-03-11T00:02:50.454Z,18.14
2018-03-11T00:03:50.453Z,18.15
2018-03-11T00:04:50.643Z,18.13
2018-03-11T00:05:50.462Z,18.13
2018-03-11T00:06:50.649Z,18.13
2018-03-11T00:07:51.343Z,18.13
2018-03-11T00:08:51.374Z,18.12
2018-03-11T00:09:50.893Z,18.12
2018-03-11T00:10:50.785Z,18.11
2018-03-11T00:11:50.507Z,18.11
2018-03-11T00:12:50.599Z,18.11
2018-03-11T00:13:50.444Z,18.1
2018-03-11T00:14:50.468Z,18.09
2018-03-11T00:15:50.449Z,18.1
2018-03-11T00:16:50.459Z,18.08
2018-03-11T00:17:50.440Z,18.08
2018-03-11T00:18:50.455Z,18.08
2018-03-11T00:19:50.439Z,18.07
2018-03-11T00:20:50.472Z,18.07
2018-03-11T00:21:50.447Z,18.07
2018-03-11T00:22:50.430Z,18.06
2018-03-11T00:23:50.453Z,18.06
2018-03-11T00:24:50.440Z,18.06
2018-03-11T00:25:50.478Z,18.05
2018-03-11T00:26:50.447Z,18.04
2018-03-11T00:27:50.484Z,18.05
2018-03-11T00:28:50.470Z,18.05
2018-03-11T00:29:50.462Z,18.04
2018-03-11T00:30:50.439Z,18.04
2018-03-11T00:31:50.441Z,18.03
2018-03-11T00:32:50.441Z,18.02
2018-03-11T00:33:50.437Z,18.03
2018-03-11T00:34:50.467Z,18.02
2018-03-11T00:35:50.448Z,18.03
2018-03-11T00:36:50.460Z,18.03
2018-03-11T00:37:50.449Z,18.01
2018-03-11T00:38:50.441Z,18
2018-03-11T00:39:50.468Z,18
2018-03-11T00:40:50.437Z,18
2018-03-11T00:41:50.473Z,17.99
2018-03-11T00:42:50.439Z,17.99
2018-03-11T00:43:50.750Z,17.99
2018-03-11T00:44:50.437Z,17.98
2018-03-11T00:45:50.442Z,17.98
2018-03-11T00:46:50.446Z,17.98
2018-03-11T00:47:50.432Z,17.98
2018-03-11T00:48:50.440Z,17.98
2018-03-11T00:49:50.431Z,17.97
2018-03-11T00:50:50.431Z,17.96
2018-03-11T00:51:50.425Z,17.97
2018-03-11T00:52:50.433Z,17.95
2018-03-11T00:53:50.428Z,17.96
2018-03-11T00:54:50.499Z,17.95
2018-03-11T00:55:50.428Z,17.96
2018-03-11T00:56:50.443Z,17.94
2018-03-11T00:57:50.432Z,17.94
2018-03-11T00:58:50.431Z,17.94
2018-03-11T00:59:50.444Z,17.92
2018-03-11T01:00:50.480Z,17.93
2018-03-11T01:01:50.428Z,17.92
2018-03-11T01:02:50.428Z,17.93
2018-03-11T01:03:50.433Z,17.93
2018-03-11T01:04:50.454Z,17.92
2018-03-11T01:05:50.452Z,17.92
2018-03-11T01:06:50.436Z,17.92
2018-03-11T01:07:50.420Z,17.91
2018-03-11T01:08:50.432Z,17.91
2018-03-11T01:09:50.473Z,17.91
2018-03-11T01:10:50.432Z,17.9
2018-03-11T01:11:50.422Z,17.89
2018-03-11T01:12:50.426Z,17.89
2018-03-11T01:13:50.428Z,17.89
2018-03-11T01:14:50.453Z,17.87
2018-03-11T01:15:50.440Z,17.89
2018-03-11T01:16:50.443Z,17.87
2018-03-11T01:17:50.425Z,17.86
2018-03-11T01:18:50.422Z,17.87
2018-03-11T01:19:50.424Z,17.87
2018-03-11T01:20:50.475Z,17.87
2018-03-11T01:21:50.424Z,17.86
2018-03-11T01:22:50.405Z,17.86
2018-03-11T01:23:50.418Z,17.85
2018-03-11T01:24:50.443Z,17.86
2018-03-11T01:25:50.556Z,17.85
2018-03-11T01:26:50.435Z,17.84
2018-03-11T01:27:50.410Z,17.85
2018-03-11T01:28:50.443Z,17.84
2018-03-11T01:29:50.393Z,17.83
2018-03-11T01:30:50.442Z,17.84
2018-03-11T01:31:50.406Z,17.82
2018-03-11T01:32:50.448Z,17.83
2018-03-11T01:33:50.433Z,17.83
2018-03-11T01:34:50.527Z,17.83
2018-03-11T01:35:50.543Z,17.82
2018-03-11T01:36:50.441Z,17.82
2018-03-11T01:37:50.422Z,17.82
2018-03-11T01:38:50.413Z,17.82
2018-03-11T01:39:50.428Z,17.82
2018-03-11T01:40:50.452Z,17.8
2018-03-11T01:41:50.453Z,17.8
2018-03-11T01:42:50.416Z,17.8
2018-03-11T01:43:50.405Z,17.79
2018-03-11T01:44:50.416Z,17.79
2018-03-11T01:45:50.449Z,17.79
2018-03-11T01:46:50.426Z,17.79
2018-03-11T01:47:50.425Z,17.79
2018-03-11T01:48:50.412Z,17.79
2018-03-11T01:49:50.399Z,17.79
2018-03-11T01:50:50.681Z,17.78
2018-03-11T01:51:50.418Z,17.79
2018-03-11T01:52:50.398Z,17.78
2018-03-11T01:53:50.454Z,17.77
2018-03-11T01:54:50.426Z,17.77
2018-03-11T01:55:50.435Z,17.77
2018-03-11T01:56:50.397Z,17.76
2018-03-11T01:57:50.412Z,17.76
2018-03-11T01:58:50.419Z,17.76
2018-03-11T01:59:50.426Z,17.76
2018-03-11T02:00:50.420Z,17.76
2018-03-11T02:01:50.424Z,17.75
2018-03-11T02:02:50.421Z,17.73
2018-03-11T02:03:50.402Z,17.74
2018-03-11T02:04:50.457Z,17.74
2018-03-11T02:05:50.412Z,17.74
2018-03-11T02:06:50.422Z,17.75
2018-03-11T02:07:50.411Z,17.74
2018-03-11T02:08:50.470Z,17.73
2018-03-11T02:09:50.402Z,17.73
2018-03-11T02:10:50.412Z,17.73
2018-03-11T02:11:50.415Z,17.72
2018-03-11T02:12:50.473Z,17.73
2018-03-11T02:13:50.427Z,17.72
2018-03-11T02:14:50.413Z,17.72
2018-03-11T02:15:50.417Z,17.73
2018-03-11T02:16:50.422Z,17.73
2018-03-11T02:17:50.415Z,17.72
2018-03-11T02:18:50.428Z,17.72
2018-03-11T02:19:50.395Z,17.72
2018-03-11T02:20:50.402Z,17.7
2018-03-11T02:21:50.417Z,17.71
2018-03-11T02:22:50.413Z,17.71
2018-03-11T02:23:50.415Z,17.7
2018-03-11T02:24:50.430Z,17.69
2018-03-11T02:25:50.405Z,17.69
2018-03-11T02:26:50.443Z,17.69
2018-03-11T02:27:50.409Z,17.69
2018-03-11T02:28:50.390Z,17.67
2018-03-11T02:29:50.390Z,17.67
2018-03-11T02:30:50.714Z,17.68
2018-03-11T02:31:50.437Z,17.67
2018-03-11T02:32:50.416Z,17.66
2018-03-11T02:33:50.419Z,17.67
2018-03-11T02:34:50.455Z,17.66
2018-03-11T02:35:50.476Z,17.66
2018-03-11T02:36:50.413Z,17.66
2018-03-11T02:37:50.396Z,17.66
2018-03-11T02:38:50.412Z,17.67
2018-03-11T02:39:50.399Z,17.66
2018-03-11T02:40:50.404Z,17.64
2018-03-11T02:41:50.410Z,17.64
2018-03-11T02:42:50.402Z,17.64
2018-03-11T02:43:50.424Z,17.63
2018-03-11T02:44:50.427Z,17.63
2018-03-11T02:45:50.419Z,17.63
2018-03-11T02:46:50.411Z,17.63
2018-03-11T02:47:50.422Z,17.63
2018-03-11T02:48:50.446Z,17.63
2018-03-11T02:49:50.428Z,17.62
2018-03-11T02:50:50.416Z,17.62
2018-03-11T02:51:50.398Z,17.62
2018-03-11T02:52:50.415Z,17.63
2018-03-11T02:53:50.416Z,17.62
2018-03-11T02:54:50.423Z,17.61
2018-03-11T02:55:50.675Z,17.61
2018-03-11T02:56:50.393Z,17.61
2018-03-11T02:57:50.403Z,17.61
2018-03-11T02:58:50.388Z,17.61
2018-03-11T02:59:50.387Z,17.61
2018-03-11T03:00:50.426Z,17.61
2018-03-11T03:01:50.427Z,17.61
2018-03-11T03:02:50.395Z,17.61
2018-03-11T03:03:50.403Z,17.61
2018-03-11T03:04:50.395Z,17.6
2018-03-11T03:05:50.413Z,17.61
2018-03-11T03:06:50.440Z,17.6
2018-03-11T03:07:50.399Z,17.6
2018-03-11T03:08:50.397Z,17.6
2018-03-11T03:09:50.399Z,17.6
2018-03-11T03:10:50.425Z,17.6
2018-03-11T03:11:50.421Z,17.58
2018-03-11T03:12:50.410Z,17.59
2018-03-11T03:13:50.412Z,17.59
2018-03-11T03:14:50.383Z,17.59
2018-03-11T03:15:50.635Z,17.58
2018-03-11T03:16:50.397Z,17.58
2018-03-11T03:17:50.457Z,17.57
2018-03-11T03:18:50.383Z,17.57
2018-03-11T03:19:50.397Z,17.57
2018-03-11T03:20:50.673Z,17.57
2018-03-11T03:21:50.434Z,17.57
2018-03-11T03:22:50.387Z,17.56
2018-03-11T03:23:50.386Z,17.56
2018-03-11T03:24:50.364Z,17.56
2018-03-11T03:25:50.463Z,17.56
2018-03-11T03:26:50.390Z,17.55
2018-03-11T03:27:50.405Z,17.55
2018-03-11T03:28:50.384Z,17.54
2018-03-11T03:29:50.431Z,17.54
2018-03-11T03:30:50.784Z,17.54
2018-03-11T03:31:50.385Z,17.54
2018-03-11T03:32:50.386Z,17.54
2018-03-11T03:33:50.383Z,17.54
2018-03-11T03:34:50.372Z,17.53
2018-03-11T03:35:50.492Z,17.53
2018-03-11T03:36:50.497Z,17.53
2018-03-11T03:37:50.397Z,17.53
2018-03-11T03:38:50.438Z,17.53
2018-03-11T03:39:50.372Z,17.52
2018-03-11T03:40:50.393Z,17.52
2018-03-11T03:41:50.642Z,17.5
2018-03-11T03:42:50.478Z,17.51
2018-03-11T03:43:50.506Z,17.5
2018-03-11T03:44:50.539Z,17.5
2018-03-11T03:45:50.437Z,17.5
2018-03-11T03:46:50.530Z,17.5
2018-03-11T03:47:50.411Z,17.5
2018-03-11T03:48:50.466Z,17.5
2018-03-11T03:49:50.507Z,17.51
2018-03-11T03:50:50.385Z,17.5
2018-03-11T03:51:50.487Z,17.5
2018-03-11T03:52:50.456Z,17.48
2018-03-11T03:53:50.375Z,17.48
2018-03-11T03:54:50.372Z,17.48
2018-03-11T03:55:50.363Z,17.49
2018-03-11T03:56:50.406Z,17.48
2018-03-11T03:57:50.361Z,17.47
2018-03-11T03:58:50.371Z,17.46
2018-03-11T03:59:50.421Z,17.47
2018-03-11T04:00:50.373Z,17.47
2018-03-11T04:01:50.402Z,17.46
2018-03-11T04:02:50.371Z,17.46
2018-03-11T04:03:50.370Z,17.46
2018-03-11T04:04:50.363Z,17.45
2018-03-11T04:05:50.410Z,17.45
2018-03-11T04:06:50.364Z,17.45
2018-03-11T04:07:50.364Z,17.45
2018-03-11T04:08:50.378Z,17.45
2018-03-11T04:09:50.401Z,17.45
2018-03-11T04:10:50.385Z,17.45
2018-03-11T04:11:50.396Z,17.43
2018-03-11T04:12:50.361Z,17.43
2018-03-11T04:13:50.363Z,17.43
2018-03-11T04:14:50.359Z,17.43
2018-03-11T04:15:50.367Z,17.43
2018-03-11T04:16:50.370Z,17.42
2018-03-11T04:17:50.398Z,17.42
2018-03-11T04:18:50.378Z,17.42
2018-03-11T04:19:50.362Z,17.42
2018-03-11T04:20:50.375Z,17.42
2018-03-11T04:21:50.388Z,17.42
2018-03-11T04:22:50.384Z,17.41
2018-03-11T04:23:50.370Z,17.42
2018-03-11T04:24:50.359Z,17.42
2018-03-11T04:25:50.403Z,17.42
2018-03-11T04:26:50.358Z,17.41
2018-03-11T04:27:50.395Z,17.41
2018-03-11T04:28:50.354Z,17.41
2018-03-11T04:29:50.371Z,17.4
2018-03-11T04:30:50.380Z,17.41
2018-03-11T04:31:50.352Z,17.4
2018-03-11T04:32:50.647Z,17.39
2018-03-11T04:33:50.363Z,17.39
2018-03-11T04:34:50.369Z,17.39
2018-03-11T04:35:50.365Z,17.39
2018-03-11T04:36:50.358Z,17.39
2018-03-11T04:37:50.401Z,17.39
2018-03-11T04:38:50.373Z,17.38
2018-03-11T04:39:50.387Z,17.39
2018-03-11T04:40:50.413Z,17.4
2018-03-11T04:41:50.354Z,17.38
2018-03-11T04:42:50.354Z,17.38
2018-03-11T04:43:50.373Z,17.37
2018-03-11T04:44:50.383Z,17.37
2018-03-11T04:45:50.388Z,17.38
2018-03-11T04:46:50.368Z,17.37
2018-03-11T04:47:50.413Z,17.37
2018-03-11T04:48:50.373Z,17.37
2018-03-11T04:49:50.368Z,17.38
2018-03-11T04:50:50.403Z,17.38
2018-03-11T04:51:50.358Z,17.38
2018-03-11T04:52:50.367Z,17.38
2018-03-11T04:53:50.513Z,17.38
2018-03-11T04:54:50.360Z,17.38
2018-03-11T04:55:50.357Z,17.39
2018-03-11T04:56:50.336Z,17.39
2018-03-11T04:57:50.354Z,17.38
2018-03-11T04:58:50.386Z,17.39
2018-03-11T04:59:50.348Z,17.41
2018-03-11T05:00:50.350Z,17.39
2018-03-11T05:01:50.358Z,17.39
2018-03-11T05:02:50.359Z,17.4
2018-03-11T05:03:50.373Z,17.39
2018-03-11T05:04:50.351Z,17.4
2018-03-11T05:05:50.354Z,17.4
2018-03-11T05:06:50.351Z,17.41
2018-03-11T05:07:50.344Z,17.4
2018-03-11T05:08:50.352Z,17.41
2018-03-11T05:09:50.387Z,17.42
2018-03-11T05:10:50.349Z,17.42
2018-03-11T05:11:50.353Z,17.42
2018-03-11T05:12:50.364Z,17.43
2018-03-11T05:13:50.345Z,17.44
2018-03-11T05:14:50.670Z,17.45
2018-03-11T05:15:50.370Z,17.46
2018-03-11T05:16:50.339Z,17.48
2018-03-11T05:17:50.373Z,17.49
2018-03-11T05:18:50.353Z,17.49
2018-03-11T05:19:50.506Z,17.51
2018-03-11T05:20:50.419Z,17.53
2018-03-11T05:21:50.414Z,17.54
2018-03-11T05:22:50.354Z,17.55
2018-03-11T05:23:50.349Z,17.56
2018-03-11T05:24:50.347Z,17.57
2018-03-11T05:25:50.332Z,17.59
2018-03-11T05:26:50.401Z,17.6
2018-03-11T05:27:50.329Z,17.61
2018-03-11T05:28:50.366Z,17.62
2018-03-11T05:29:50.341Z,17.63
2018-03-11T05:30:50.366Z,17.64
2018-03-11T05:31:50.410Z,17.66
2018-03-11T05:32:50.345Z,17.67
2018-03-11T05:33:50.351Z,17.68
2018-03-11T05:34:50.350Z,17.7
2018-03-11T05:35:50.343Z,17.71
2018-03-11T05:36:50.446Z,17.72
2018-03-11T05:37:50.430Z,17.73
2018-03-11T05:38:50.359Z,17.74
2018-03-11T05:39:50.337Z,17.75
2018-03-11T05:40:50.358Z,17.77
2018-03-11T05:41:50.345Z,17.78
2018-03-11T05:42:50.337Z,17.79
2018-03-11T05:43:50.331Z,17.8
2018-03-11T05:44:50.339Z,17.8
2018-03-11T05:45:50.340Z,17.82
2018-03-11T05:46:50.380Z,17.83
2018-03-11T05:47:50.336Z,17.84
2018-03-11T05:48:50.333Z,17.85
2018-03-11T05:49:50.357Z,17.86
2018-03-11T05:50:50.324Z,17.87
2018-03-11T05:51:50.333Z,17.88
2018-03-11T05:52:50.363Z,17.9
2018-03-11T05:53:50.342Z,17.92
2018-03-11T05:54:50.370Z,17.92
2018-03-11T05:55:50.323Z,17.93
2018-03-11T05:56:50.334Z,17.94
2018-03-11T05:57:50.335Z,17.95
2018-03-11T05:58:50.338Z,17.97
2018-03-11T05:59:50.358Z,17.98
2018-03-11T06:00:50.333Z,17.98
2018-03-11T06:01:50.331Z,17.99
2018-03-11T06:02:50.345Z,18.01
2018-03-11T06:03:50.333Z,18.01
2018-03-11T06:04:50.371Z,18.03
2018-03-11T06:05:50.326Z,18.04
2018-03-11T06:06:50.366Z,18.04
2018-03-11T06:07:50.328Z,18.05
2018-03-11T06:08:50.362Z,18.06
2018-03-11T06:09:50.360Z,18.07
2018-03-11T06:10:50.358Z,18.08
2018-03-11T06:11:50.342Z,18.08
2018-03-11T06:12:50.331Z,18.09
2018-03-11T06:13:50.328Z,18.1
2018-03-11T06:14:50.395Z,18.1
2018-03-11T06:15:50.331Z,18.1
2018-03-11T06:16:50.656Z,18.1
2018-03-11T06:17:50.366Z,18.11
2018-03-11T06:18:50.332Z,18.11
2018-03-11T06:19:50.335Z,18.12
2018-03-11T06:20:50.325Z,18.12
2018-03-11T06:21:50.337Z,18.12
2018-03-11T06:22:50.366Z,18.13
2018-03-11T06:23:50.328Z,18.14
2018-03-11T06:24:50.361Z,18.15
2018-03-11T06:25:50.337Z,18.15
2018-03-11T06:26:50.372Z,18.16
2018-03-11T06:27:50.314Z,18.16
2018-03-11T06:28:50.346Z,18.17
2018-03-11T06:29:50.383Z,18.17
2018-03-11T06:30:50.322Z,18.17
2018-03-11T06:31:50.322Z,18.19
2018-03-11T06:32:50.320Z,18.19
2018-03-11T06:33:50.318Z,18.2
2018-03-11T06:34:50.359Z,18.21
2018-03-11T06:35:50.338Z,18.21
2018-03-11T06:36:50.332Z,18.21
2018-03-11T06:37:50.322Z,18.23
2018-03-11T06:38:50.334Z,18.23
2018-03-11T06:39:50.328Z,18.23
2018-03-11T06:40:50.352Z,18.24
2018-03-11T06:41:50.334Z,18.25
2018-03-11T06:42:50.364Z,18.25
2018-03-11T06:43:50.318Z,18.26
2018-03-11T06:44:50.317Z,18.26
2018-03-11T06:45:50.315Z,18.27
2018-03-11T06:46:50.329Z,18.28
2018-03-11T06:47:50.323Z,18.29
2018-03-11T06:48:50.333Z,18.29
2018-03-11T06:49:50.283Z,18.29
2018-03-11T06:50:50.307Z,18.3
2018-03-11T06:51:50.321Z,18.3
2018-03-11T06:52:50.316Z,18.31
2018-03-11T06:53:50.322Z,18.32
2018-03-11T06:54:50.322Z,18.32
2018-03-11T06:55:50.308Z,18.33
2018-03-11T06:56:50.331Z,18.34
2018-03-11T06:57:50.316Z,18.35
2018-03-11T06:58:50.317Z,18.35
2018-03-11T06:59:50.323Z,18.36
2018-03-11T07:00:50.301Z,18.36
2018-03-11T07:01:50.304Z,18.37
2018-03-11T07:02:50.332Z,18.38
2018-03-11T07:03:50.405Z,18.38
2018-03-11T07:04:50.309Z,18.4
2018-03-11T07:05:50.308Z,18.4
2018-03-11T07:06:50.330Z,18.41
2018-03-11T07:07:50.336Z,18.41
2018-03-11T07:08:50.327Z,18.42
2018-03-11T07:09:50.327Z,18.42
2018-03-11T07:10:50.649Z,18.43
2018-03-11T07:11:50.315Z,18.44
2018-03-11T07:12:50.311Z,18.44
2018-03-11T07:13:50.329Z,18.44
2018-03-11T07:14:50.327Z,18.45
2018-03-11T07:15:50.298Z,18.45
2018-03-11T07:16:50.304Z,18.46
2018-03-11T07:17:50.336Z,18.46
2018-03-11T07:18:50.351Z,18.46
2018-03-11T07:19:50.307Z,18.47
2018-03-11T07:20:50.327Z,18.47
2018-03-11T07:21:50.354Z,18.47
2018-03-11T07:22:50.563Z,18.48
2018-03-11T07:23:50.307Z,18.48
2018-03-11T07:24:50.339Z,18.48
2018-03-11T07:25:50.306Z,18.48
2018-03-11T07:26:50.299Z,18.48
2018-03-11T07:27:50.565Z,18.48
2018-03-11T07:28:50.309Z,18.48
2018-03-11T07:29:50.306Z,18.49
2018-03-11T07:30:50.327Z,18.49
2018-03-11T07:31:50.307Z,18.5
2018-03-11T07:32:50.333Z,18.5
2018-03-11T07:33:50.308Z,18.5
2018-03-11T07:34:50.306Z,18.51
2018-03-11T07:35:50.280Z,18.52
2018-03-11T07:36:50.298Z,18.52
2018-03-11T07:37:50.676Z,18.53
2018-03-11T07:38:50.388Z,18.53
2018-03-11T07:39:50.307Z,18.54
2018-03-11T07:40:50.304Z,18.54
2018-03-11T07:41:50.298Z,18.54
2018-03-11T07:42:50.328Z,18.54
2018-03-11T07:43:50.311Z,18.56
2018-03-11T07:44:50.342Z,18.56
2018-03-11T07:45:50.325Z,18.57
2018-03-11T07:46:50.311Z,18.58
2018-03-11T07:47:50.338Z,18.59
2018-03-11T07:48:50.320Z,18.58
2018-03-11T07:49:50.321Z,18.6
2018-03-11T07:50:50.367Z,18.6
2018-03-11T07:51:50.337Z,18.6
2018-03-11T07:52:50.328Z,18.61
2018-03-11T07:53:50.348Z,18.61
2018-03-11T07:54:50.318Z,18.61
2018-03-11T07:55:50.313Z,18.62
2018-03-11T07:56:50.310Z,18.63
2018-03-11T07:57:50.305Z,18.62
2018-03-11T07:58:50.310Z,18.63
2018-03-11T07:59:50.336Z,18.64
2018-03-11T08:00:50.316Z,18.64
2018-03-11T08:01:50.536Z,18.65
2018-03-11T08:02:50.641Z,18.65
2018-03-11T08:03:50.306Z,18.64
2018-03-11T08:04:50.395Z,18.65
2018-03-11T08:05:50.377Z,18.66
2018-03-11T08:06:50.305Z,18.65
2018-03-11T08:07:50.335Z,18.66
2018-03-11T08:08:50.311Z,18.66
2018-03-11T08:09:50.312Z,18.66
2018-03-11T08:10:50.306Z,18.66
2018-03-11T08:11:50.324Z,18.66
2018-03-11T08:12:50.325Z,18.66
2018-03-11T08:13:50.297Z,18.66
2018-03-11T08:14:50.298Z,18.67
2018-03-11T08:15:50.300Z,18.67
2018-03-11T08:16:50.299Z,18.62
2018-03-11T08:17:50.438Z,18.61
2018-03-11T08:18:50.329Z,18.61
2018-03-11T08:19:50.303Z,18.62
2018-03-11T08:20:50.302Z,18.63
2018-03-11T08:21:50.321Z,18.64
2018-03-11T08:22:50.339Z,18.65
2018-03-11T08:23:50.307Z,18.65
2018-03-11T08:24:50.303Z,18.66
2018-03-11T08:25:50.556Z,18.67
2018-03-11T08:26:50.314Z,18.67
2018-03-11T08:27:50.333Z,18.67
2018-03-11T08:28:50.327Z,18.68
2018-03-11T08:29:50.318Z,18.69
2018-03-11T08:30:50.297Z,18.69
2018-03-11T08:31:50.314Z,18.71
2018-03-11T08:32:50.306Z,18.71
2018-03-11T08:33:50.310Z,18.71
2018-03-11T08:34:50.284Z,18.72
2018-03-11T08:35:50.303Z,18.72
2018-03-11T08:36:50.302Z,18.72
2018-03-11T08:37:50.292Z,18.73
2018-03-11T08:38:50.309Z,18.72
2018-03-11T08:39:50.333Z,18.72
2018-03-11T08:40:50.386Z,18.74
2018-03-11T08:41:50.478Z,18.75
2018-03-11T08:42:50.685Z,18.76
2018-03-11T08:43:50.285Z,18.78
2018-03-11T08:44:50.352Z,18.79
2018-03-11T08:45:50.299Z,18.79
2018-03-11T08:46:50.289Z,18.81
2018-03-11T08:47:50.289Z,18.82
2018-03-11T08:48:50.302Z,18.83
2018-03-11T08:49:50.637Z,18.85
2018-03-11T08:50:50.310Z,18.86
2018-03-11T08:51:50.299Z,18.89
2018-03-11T08:52:50.395Z,18.93
2018-03-11T08:53:50.885Z,18.95
2018-03-11T08:54:50.338Z,18.94
2018-03-11T08:55:50.576Z,18.97
2018-03-11T08:56:50.311Z,18.98
2018-03-11T08:57:50.309Z,18.99
2018-03-11T08:58:50.302Z,19.01
2018-03-11T08:59:50.304Z,19.02
2018-03-11T09:00:50.326Z,19.03
2018-03-11T09:01:50.318Z,19.06
2018-03-11T09:02:50.305Z,19.07
2018-03-11T09:03:50.300Z,19.05
2018-03-11T09:04:50.328Z,19.08
2018-03-11T09:05:50.297Z,19.08
2018-03-11T09:06:50.289Z,19.08
2018-03-11T09:07:50.276Z,19.09
2018-03-11T09:08:50.134Z,19.1
2018-03-11T09:09:50.325Z,19.09
2018-03-11T09:10:50.293Z,19.11
2018-03-11T09:11:50.285Z,19.12
2018-03-11T09:12:50.294Z,19.12
2018-03-11T09:13:50.335Z,19.13
2018-03-11T09:14:50.265Z,19.14
2018-03-11T09:15:50.314Z,19.14
2018-03-11T09:16:50.279Z,19.15
2018-03-11T09:17:50.347Z,19.15
2018-03-11T09:18:50.281Z,19.16
2018-03-11T09:19:50.289Z,19.17
2018-03-11T09:20:50.561Z,19.19
2018-03-11T09:21:50.286Z,19.19
2018-03-11T09:22:50.287Z,19.19
2018-03-11T09:23:50.296Z,19.18
2018-03-11T09:24:50.324Z,19.19
2018-03-11T09:25:50.313Z,19.21
2018-03-11T09:26:50.292Z,19.21
2018-03-11T09:27:50.296Z,19.21
2018-03-11T09:28:50.317Z,19.21
2018-03-11T09:29:50.297Z,19.22
2018-03-11T09:30:50.315Z,19.21
2018-03-11T09:31:50.270Z,19.23
2018-03-11T09:32:50.293Z,19.23
2018-03-11T09:33:50.289Z,19.22
2018-03-11T09:34:50.485Z,19.24
2018-03-11T09:35:50.307Z,19.24
2018-03-11T09:36:50.279Z,19.24
2018-03-11T09:37:50.279Z,19.26
2018-03-11T09:38:50.402Z,19.26
2018-03-11T09:39:50.393Z,19.26
2018-03-11T09:40:50.385Z,19.28
2018-03-11T09:41:50.289Z,19.28
2018-03-11T09:42:50.274Z,19.27
2018-03-11T09:43:50.291Z,19.27
2018-03-11T09:44:50.281Z,19.27
2018-03-11T09:45:50.357Z,19.26
2018-03-11T09:46:50.285Z,19.26
2018-03-11T09:47:50.291Z,19.26
2018-03-11T09:48:50.299Z,19.23
2018-03-11T09:49:50.281Z,19.24
2018-03-11T09:50:50.286Z,19.25
2018-03-11T09:51:50.276Z,19.21
2018-03-11T09:52:50.269Z,19.22
2018-03-11T09:53:50.289Z,19.24
2018-03-11T09:54:50.291Z,19.21
2018-03-11T09:55:50.270Z,19.22
2018-03-11T09:56:50.945Z,19.22
2018-03-11T09:57:50.278Z,19.2
2018-03-11T09:58:50.287Z,19.21
2018-03-11T09:59:50.277Z,19.21
2018-03-11T10:00:50.141Z,19.2
2018-03-11T10:01:50.264Z,19.2
2018-03-11T10:02:50.367Z,19.2
2018-03-11T10:03:50.264Z,19.19
2018-03-11T10:04:50.282Z,19.18
2018-03-11T10:05:50.268Z,19.18
2018-03-11T10:06:50.297Z,19.18
2018-03-11T10:07:50.293Z,19.21
2018-03-11T10:08:50.285Z,19.21
2018-03-11T10:09:50.280Z,19.21
2018-03-11T10:10:50.285Z,19.23
2018-03-11T10:11:50.305Z,19.24
2018-03-11T10:12:50.291Z,19.23
2018-03-11T10:13:50.375Z,19.25
2018-03-11T10:14:50.268Z,19.25
2018-03-11T10:15:34.343Z,19.45
2018-03-11T10:16:34.333Z,19.56
2018-03-11T10:17:34.366Z,19.62
2018-03-11T10:18:34.267Z,19.75
2018-03-11T10:19:34.270Z,19.74
2018-03-11T10:20:34.320Z,19.75
2018-03-11T10:21:34.294Z,19.77
2018-03-11T10:22:34.293Z,19.81
2018-03-11T10:23:34.270Z,19.83
2018-03-11T10:24:34.293Z,19.86
2018-03-11T10:25:34.268Z,19.88
2018-03-11T10:26:34.265Z,19.9
2018-03-11T10:27:34.263Z,19.92
2018-03-11T10:28:34.254Z,19.94
2018-03-11T10:29:34.284Z,19.94
2018-03-11T10:30:34.292Z,19.96
2018-03-11T10:31:34.288Z,19.98
2018-03-11T10:32:34.269Z,19.98
2018-03-11T10:33:52.140Z,20.44
2018-03-11T10:33:58.908Z,20.42
2018-03-11T10:34:28.084Z,20.65
2018-03-11T10:35:28.219Z,20.79
2018-03-11T10:36:28.031Z,20.67
2018-03-11T10:37:28.125Z,20.58
2018-03-11T10:38:28.025Z,20.5
2018-03-11T10:39:28.072Z,20.46
2018-03-11T10:40:28.028Z,20.67
2018-03-11T10:41:28.032Z,21.11
2018-03-11T10:42:28.086Z,20.95
2018-03-11T10:43:28.051Z,20.79
2018-03-11T10:44:28.294Z,20.7
2018-03-11T10:45:28.027Z,20.63
2018-03-11T10:46:28.016Z,20.57
2018-03-11T10:47:28.306Z,20.53
2018-03-11T10:48:28.033Z,20.5
2018-03-11T10:49:28.052Z,20.47
2018-03-11T10:50:28.033Z,20.47
2018-03-11T10:51:28.039Z,20.47
2018-03-11T10:52:28.036Z,20.47
2018-03-11T10:53:28.056Z,20.46
2018-03-11T13:46:03.480Z,20.59
2018-03-11T13:46:18.403Z,20.61
2018-03-11T13:47:18.472Z,20.59
2018-03-11T13:57:47.721Z,20.35
2018-03-11T13:58:47.847Z,20.34
2018-03-11T13:59:47.694Z,20.31
2018-03-11T14:00:47.549Z,20.3
2018-03-11T14:01:47.611Z,20.3
2018-03-11T14:02:47.587Z,20.27
2018-03-11T14:03:47.862Z,20.24
2018-03-11T14:04:47.671Z,20.24
2018-03-11T14:05:47.605Z,20.24
2018-03-11T14:06:47.556Z,20.24
2018-03-11T14:07:47.604Z,20.24
2018-03-11T14:08:47.608Z,20.24
2018-03-11T14:09:47.575Z,20.24
2018-03-11T14:10:47.589Z,20.25
2018-03-11T14:11:47.597Z,20.26
2018-03-11T14:12:47.563Z,20.26
2018-03-11T14:13:47.601Z,20.27
2018-03-11T14:14:47.639Z,20.28
2018-03-11T14:15:47.564Z,20.29
2018-03-11T14:16:47.617Z,20.3
2018-03-11T14:17:47.596Z,20.3
2018-03-11T14:18:47.569Z,20.3
2018-03-11T14:19:47.614Z,20.32
2018-03-11T14:20:47.573Z,20.35
2018-03-11T14:21:47.584Z,20.36
2018-03-11T14:22:47.594Z,20.4
2018-03-11T14:23:47.602Z,20.4
2018-03-11T14:24:47.565Z,20.42
2018-03-11T14:25:47.625Z,20.42
2018-03-11T14:26:47.597Z,20.42
2018-03-11T14:27:47.563Z,20.46
2018-03-11T14:28:47.681Z,20.47
2018-03-11T14:29:47.595Z,20.51
2018-03-11T14:30:47.553Z,20.47
2018-03-11T14:31:47.620Z,20.48
2018-03-11T14:32:47.598Z,20.47
2018-03-11T14:33:47.576Z,20.47
2018-03-11T14:34:47.986Z,20.47
2018-03-11T14:35:47.592Z,20.46
2018-03-11T14:36:47.586Z,20.48
2018-03-11T14:37:47.629Z,20.48
2018-03-11T14:38:47.594Z,20.4
2018-03-11T14:39:47.611Z,20.36
2018-03-11T14:40:47.695Z,20.36
2018-03-11T14:41:47.581Z,20.35
2018-03-11T14:42:47.583Z,20.34
2018-03-11T14:43:47.718Z,20.32
2018-03-11T14:44:47.561Z,20.31
2018-03-11T14:45:47.568Z,20.3
2018-03-11T14:46:47.587Z,20.29
2018-03-11T14:47:47.871Z,20.27
2018-03-11T14:48:47.576Z,20.27
2018-03-11T14:49:47.580Z,20.25
2018-03-11T14:50:47.604Z,20.24
2018-03-11T14:51:47.706Z,20.23
2018-03-11T14:52:47.699Z,20.22
2018-03-11T14:53:47.702Z,20.21
2018-03-11T14:54:47.715Z,20.2
2018-03-11T14:55:47.695Z,20.2
2018-03-11T14:56:47.573Z,20.19
2018-03-11T14:57:47.592Z,20.19
2018-03-11T14:58:47.572Z,20.18
2018-03-11T14:59:47.591Z,20.19
2018-03-11T15:00:47.562Z,20.18
2018-03-11T15:01:47.736Z,20.18
2018-03-11T15:02:47.654Z,20.18
2018-03-11T15:03:47.552Z,20.18
2018-03-11T15:04:47.557Z,20.18
2018-03-11T15:05:47.567Z,20.18
2018-03-11T15:06:47.597Z,20.18
2018-03-11T15:07:47.961Z,20.18
2018-03-11T15:08:47.574Z,20.18
2018-03-11T15:09:47.556Z,20.18
2018-03-11T15:10:47.585Z,20.18
2018-03-11T15:11:47.575Z,20.18
2018-03-11T15:12:47.569Z,20.17
2018-03-11T15:13:47.659Z,20.17
2018-03-11T15:14:47.622Z,20.17
2018-03-11T15:15:47.541Z,20.16
2018-03-11T15:16:47.600Z,20.15
2018-03-11T15:17:47.610Z,20.15
2018-03-11T15:18:47.559Z,20.14
2018-03-11T15:19:47.566Z,20.13
2018-03-11T15:20:47.576Z,20.13
2018-03-11T15:21:47.553Z,20.12
2018-03-11T15:22:47.570Z,20.11
2018-03-11T15:23:47.596Z,20.11
2018-03-11T15:24:47.543Z,20.1
2018-03-11T15:25:47.591Z,20.1
2018-03-11T15:26:47.552Z,20.12
2018-03-11T15:27:47.806Z,20.1
2018-03-11T15:28:47.581Z,20.09
2018-03-11T15:29:47.548Z,20.1
2018-03-11T15:30:47.546Z,20.09
2018-03-11T15:31:47.571Z,20.08
2018-03-11T15:32:47.585Z,20.08
2018-03-11T15:33:47.548Z,20.07
2018-03-11T15:34:47.571Z,20.06
2018-03-11T15:35:47.551Z,20.06
2018-03-11T15:36:47.552Z,20.06
2018-03-11T15:37:47.961Z,20.06
2018-03-11T15:38:47.578Z,20.06
2018-03-11T15:39:47.537Z,20.05
2018-03-11T15:40:47.660Z,20.05
2018-03-11T15:41:47.663Z,20.04
2018-03-11T15:42:47.628Z,20.03
2018-03-11T15:43:47.633Z,20.04
2018-03-11T15:44:47.603Z,20.05
2018-03-11T15:45:47.535Z,20.05
2018-03-11T15:46:47.586Z,20.03
2018-03-11T15:47:47.585Z,20.04
2018-03-11T15:48:47.533Z,20.04
2018-03-11T15:49:47.562Z,20.03
2018-03-11T15:50:47.581Z,20.04
2018-03-11T15:51:47.514Z,20.04
2018-03-11T15:52:47.607Z,20.04
2018-03-11T15:53:47.658Z,20.04
2018-03-11T15:54:47.548Z,20.04